sensor_id;sensor_type;location;lat;lon;timestamp;pressure;altitude;pressure_sealevel;temperature;humidity
79331;BME280;68797;49.782;19.054;2023-11-21T00:00:38;96400.56;;;7.25;100.00
79331;BME280;68797;49.782;19.054;2023-11-21T00:03:26;96393.44;;;7.27;100.00
79331;BME280;68797;49.782;19.054;2023-11-21T00:05:54;96395.69;;;7.13;100.00
79331;BME280;68797;49.782;19.054;2023-11-21T00:08:21;96406.75;;;7.24;100.00
79331;BME280;68797;49.782;19.054;2023-11-21T00:10:49;96408.53;;;7.23;100.00
79331;BME280;68797;49.782;19.054;2023-11-21T00:13:17;96408.59;;;7.20;100.00
79331;BME280;68797;49.782;19.054;2023-11-21T00:15:44;96406.88;;;7.19;100.00
79331;BME280;68797;49.782;19.054;2023-11-21T00:18:11;96407.09;;;7.13;100.00
79331;BME280;68797;49.782;19.054;2023-11-21T00:20:38;96406.97;;;7.16;100.00
79331;BME280;68797;49.782;19.054;2023-11-21T00:23:07;96414.91;;;7.16;100.00
79331;BME280;68797;49.782;19.054;2023-11-21T00:25:36;96437.59;;;7.22;100.00
79331;BME280;68797;49.782;19.054;2023-11-21T00:28:03;96436.75;;;7.21;100.00
79331;BME280;68797;49.782;19.054;2023-11-21T00:30:30;96426.31;;;7.17;100.00
79331;BME280;68797;49.782;19.054;2023-11-21T00:32:58;96436.00;;;7.16;100.00
79331;BME280;68797;49.782;19.054;2023-11-21T00:35:25;96429.63;;;7.23;100.00
79331;BME280;68797;49.782;19.054;2023-11-21T00:37:52;96440.19;;;7.23;100.00
79331;BME280;68797;49.782;19.054;2023-11-21T00:40:20;96438.31;;;7.27;100.00
79331;BME280;68797;49.782;19.054;2023-11-21T00:42:49;96430.78;;;7.15;100.00
79331;BME280;68797;49.782;19.054;2023-11-21T00:45:16;96434.44;;;7.11;100.00
79331;BME280;68797;49.782;19.054;2023-11-21T00:47:43;96432.59;;;7.13;100.00
79331;BME280;68797;49.782;19.054;2023-11-21T00:50:11;96434.22;;;7.17;100.00
79331;BME280;68797;49.782;19.054;2023-11-21T00:52:39;96425.72;;;7.07;100.00
79331;BME280;68797;49.782;19.054;2023-11-21T00:55:06;96437.88;;;7.13;100.00
79331;BME280;68797;49.782;19.054;2023-11-21T00:57:35;96439.59;;;7.14;100.00
79331;BME280;68797;49.782;19.054;2023-11-21T01:00:04;96417.75;;;7.10;100.00
79331;BME280;68797;49.782;19.054;2023-11-21T01:02:40;96441.50;;;7.09;100.00
79331;BME280;68797;49.782;19.054;2023-11-21T01:05:07;96430.31;;;7.02;100.00
79331;BME280;68797;49.782;19.054;2023-11-21T01:07:34;96423.31;;;7.01;100.00
79331;BME280;68797;49.782;19.054;2023-11-21T01:10:02;96431.16;;;7.03;100.00
79331;BME280;68797;49.782;19.054;2023-11-21T01:12:29;96431.28;;;6.98;100.00
79331;BME280;68797;49.782;19.054;2023-11-21T01:14:58;96441.03;;;6.96;100.00
79331;BME280;68797;49.782;19.054;2023-11-21T01:17:28;96424.44;;;6.92;100.00
79331;BME280;68797;49.782;19.054;2023-11-21T01:19:54;96421.00;;;6.90;100.00
79331;BME280;68797;49.782;19.054;2023-11-21T01:22:22;96428.91;;;6.90;100.00
79331;BME280;68797;49.782;19.054;2023-11-21T01:24:53;96434.09;;;6.93;100.00
79331;BME280;68797;49.782;19.054;2023-11-21T01:27:25;96427.94;;;6.93;100.00
79331;BME280;68797;49.782;19.054;2023-11-21T01:29:53;96426.72;;;6.77;100.00
79331;BME280;68797;49.782;19.054;2023-11-21T01:32:20;96453.34;;;6.95;100.00
79331;BME280;68797;49.782;19.054;2023-11-21T01:34:50;96445.38;;;6.98;100.00
79331;BME280;68797;49.782;19.054;2023-11-21T01:37:18;96450.72;;;6.95;100.00
79331;BME280;68797;49.782;19.054;2023-11-21T01:39:45;96434.94;;;6.94;100.00
79331;BME280;68797;49.782;19.054;2023-11-21T01:42:13;96436.03;;;6.87;100.00
79331;BME280;68797;49.782;19.054;2023-11-21T01:44:40;96449.91;;;6.93;100.00
79331;BME280;68797;49.782;19.054;2023-11-21T01:47:08;96449.19;;;6.88;100.00
79331;BME280;68797;49.782;19.054;2023-11-21T01:49:36;96454.31;;;6.93;100.00
79331;BME280;68797;49.782;19.054;2023-11-21T01:52:04;96465.09;;;6.85;100.00
79331;BME280;68797;49.782;19.054;2023-11-21T01:54:30;96458.72;;;6.92;100.00
79331;BME280;68797;49.782;19.054;2023-11-21T01:57:00;96457.06;;;6.90;100.00
79331;BME280;68797;49.782;19.054;2023-11-21T01:59:49;96457.91;;;6.90;100.00
79331;BME280;68797;49.782;19.054;2023-11-21T02:02:17;96459.75;;;6.88;100.00
79331;BME280;68797;49.782;19.054;2023-11-21T02:04:45;96437.25;;;6.77;100.00
79331;BME280;68797;49.782;19.054;2023-11-21T02:07:13;96437.97;;;6.82;100.00
79331;BME280;68797;49.782;19.054;2023-11-21T02:09:40;96443.06;;;6.88;100.00
79331;BME280;68797;49.782;19.054;2023-11-21T02:12:10;96438.06;;;6.79;100.00
79331;BME280;68797;49.782;19.054;2023-11-21T02:14:39;96438.66;;;6.88;100.00
79331;BME280;68797;49.782;19.054;2023-11-21T02:17:06;96439.63;;;6.84;100.00
79331;BME280;68797;49.782;19.054;2023-11-21T02:19:33;96442.22;;;6.86;100.00
79331;BME280;68797;49.782;19.054;2023-11-21T02:22:00;96449.09;;;6.91;100.00
79331;BME280;68797;49.782;19.054;2023-11-21T02:24:31;96452.59;;;6.92;100.00
79331;BME280;68797;49.782;19.054;2023-11-21T02:26:58;96440.38;;;6.89;100.00
79331;BME280;68797;49.782;19.054;2023-11-21T02:29:26;96441.47;;;6.82;100.00
79331;BME280;68797;49.782;19.054;2023-11-21T02:31:55;96437.06;;;6.83;100.00
79331;BME280;68797;49.782;19.054;2023-11-21T02:34:22;96428.19;;;6.85;100.00
79331;BME280;68797;49.782;19.054;2023-11-21T02:36:49;96443.06;;;6.88;100.00
79331;BME280;68797;49.782;19.054;2023-11-21T02:39:17;96443.00;;;6.89;100.00
79331;BME280;68797;49.782;19.054;2023-11-21T02:41:44;96450.78;;;6.94;100.00
79331;BME280;68797;49.782;19.054;2023-11-21T02:44:11;96448.19;;;6.92;100.00
79331;BME280;68797;49.782;19.054;2023-11-21T02:46:38;96441.63;;;6.78;100.00
79331;BME280;68797;49.782;19.054;2023-11-21T02:49:06;96456.81;;;6.97;100.00
79331;BME280;68797;49.782;19.054;2023-11-21T02:51:33;96455.09;;;6.96;100.00
79331;BME280;68797;49.782;19.054;2023-11-21T02:53:59;96457.06;;;6.90;100.00
79331;BME280;68797;49.782;19.054;2023-11-21T02:56:30;96449.41;;;6.81;100.00
79331;BME280;68797;49.782;19.054;2023-11-21T02:59:00;96466.69;;;6.91;100.00
79331;BME280;68797;49.782;19.054;2023-11-21T03:01:26;96452.06;;;6.81;100.00
79331;BME280;68797;49.782;19.054;2023-11-21T03:03:54;96464.88;;;6.93;100.00
79331;BME280;68797;49.782;19.054;2023-11-21T03:06:22;96454.75;;;6.79;100.00
79331;BME280;68797;49.782;19.054;2023-11-21T03:08:49;96449.38;;;6.82;100.00
79331;BME280;68797;49.782;19.054;2023-11-21T03:11:19;96456.16;;;6.91;100.00
79331;BME280;68797;49.782;19.054;2023-11-21T03:13:46;96449.38;;;6.82;100.00
79331;BME280;68797;49.782;19.054;2023-11-21T03:16:15;96464.00;;;6.92;100.00
79331;BME280;68797;49.782;19.054;2023-11-21T03:18:44;96462.13;;;6.96;100.00
79331;BME280;68797;49.782;19.054;2023-11-21T03:21:14;96458.72;;;6.92;100.00
79331;BME280;68797;49.782;19.054;2023-11-21T03:23:40;96459.38;;;7.01;100.00
79331;BME280;68797;49.782;19.054;2023-11-21T03:26:14;96454.91;;;7.03;100.00
79331;BME280;68797;49.782;19.054;2023-11-21T03:28:40;96453.47;;;6.92;100.00
79331;BME280;68797;49.782;19.054;2023-11-21T03:31:09;96460.28;;;6.99;100.00
79331;BME280;68797;49.782;19.054;2023-11-21T03:33:37;96469.06;;;7.00;100.00
79331;BME280;68797;49.782;19.054;2023-11-21T03:36:05;96470.69;;;7.04;100.00
79331;BME280;68797;49.782;19.054;2023-11-21T03:38:31;96482.03;;;7.06;100.00
79331;BME280;68797;49.782;19.054;2023-11-21T03:40:59;96474.22;;;7.03;100.00
79331;BME280;68797;49.782;19.054;2023-11-21T03:43:29;96463.47;;;7.09;100.00
79331;BME280;68797;49.782;19.054;2023-11-21T03:45:55;96455.03;;;6.98;100.00
79331;BME280;68797;49.782;19.054;2023-11-21T03:48:23;96465.50;;;7.01;100.00
79331;BME280;68797;49.782;19.054;2023-11-21T03:50:50;96464.69;;;6.99;100.00
79331;BME280;68797;49.782;19.054;2023-11-21T03:53:20;96472.19;;;7.13;100.00
79331;BME280;68797;49.782;19.054;2023-11-21T03:55:47;96455.03;;;6.98;100.00
79331;BME280;68797;49.782;19.054;2023-11-21T03:58:13;96453.22;;;7.00;100.00
79331;BME280;68797;49.782;19.054;2023-11-21T04:00:41;96462.91;;;6.99;100.00
79331;BME280;68797;49.782;19.054;2023-11-21T04:03:08;96462.91;;;6.99;100.00
79331;BME280;68797;49.782;19.054;2023-11-21T04:05:34;96461.22;;;6.97;100.00
79331;BME280;68797;49.782;19.054;2023-11-21T04:08:00;96461.97;;;7.02;100.00
79331;BME280;68797;49.782;19.054;2023-11-21T04:10:27;96461.16;;;7.00;100.00
79331;BME280;68797;49.782;19.054;2023-11-21T04:12:55;96459.44;;;6.97;100.00
79331;BME280;68797;49.782;19.054;2023-11-21T04:15:22;96464.66;;;7.01;100.00
79331;BME280;68797;49.782;19.054;2023-11-21T04:17:49;96459.44;;;6.97;100.00
79331;BME280;68797;49.782;19.054;2023-11-21T04:20:15;96462.88;;;7.01;100.00
79331;BME280;68797;49.782;19.054;2023-11-21T04:22:44;96449.00;;;6.94;100.00
79331;BME280;68797;49.782;19.054;2023-11-21T04:25:16;96451.53;;;6.97;100.00
79331;BME280;68797;49.782;19.054;2023-11-21T04:27:43;96455.34;;;6.89;100.00
79331;BME280;68797;49.782;19.054;2023-11-21T04:30:15;96447.09;;;6.99;100.00
79331;BME280;68797;49.782;19.054;2023-11-21T04:32:42;96456.81;;;6.97;100.00
79331;BME280;68797;49.782;19.054;2023-11-21T04:35:09;96463.97;;;6.94;100.00
79331;BME280;68797;49.782;19.054;2023-11-21T04:37:36;96458.88;;;6.88;100.00
79331;BME280;68797;49.782;19.054;2023-11-21T04:40:10;96468.94;;;7.03;99.67
79331;BME280;68797;49.782;19.054;2023-11-21T04:42:37;96458.84;;;6.89;100.00
79331;BME280;68797;49.782;19.054;2023-11-21T04:45:05;96464.81;;;6.94;100.00
79331;BME280;68797;49.782;19.054;2023-11-21T04:47:35;96463.09;;;6.93;100.00
79331;BME280;68797;49.782;19.054;2023-11-21T04:50:05;96465.84;;;6.90;100.00
79331;BME280;68797;49.782;19.054;2023-11-21T04:52:32;96465.56;;;6.99;99.87
79331;BME280;68797;49.782;19.054;2023-11-21T04:55:00;96470.91;;;6.96;100.00
79331;BME280;68797;49.782;19.054;2023-11-21T04:57:27;96464.97;;;6.90;100.00
79331;BME280;68797;49.782;19.054;2023-11-21T04:59:56;96478.09;;;6.91;98.84
79331;BME280;68797;49.782;19.054;2023-11-21T05:02:23;96465.72;;;6.93;98.87
79331;BME280;68797;49.782;19.054;2023-11-21T05:04:50;96451.19;;;6.80;98.09
79331;BME280;68797;49.782;19.054;2023-11-21T05:07:17;96476.31;;;6.92;98.41
79331;BME280;68797;49.782;19.054;2023-11-21T05:09:45;96466.00;;;6.84;99.43
79331;BME280;68797;49.782;19.054;2023-11-21T05:12:14;96483.44;;;6.90;98.22
79331;BME280;68797;49.782;19.054;2023-11-21T05:14:42;96483.38;;;6.91;99.26
79331;BME280;68797;49.782;19.054;2023-11-21T05:17:10;96491.09;;;6.97;98.62
79331;BME280;68797;49.782;19.054;2023-11-21T05:19:38;96486.44;;;7.06;97.61
79331;BME280;68797;49.782;19.054;2023-11-21T05:22:06;96485.09;;;6.92;98.66
79331;BME280;68797;49.782;19.054;2023-11-21T05:24:36;96482.38;;;6.95;98.94
79331;BME280;68797;49.782;19.054;2023-11-21T05:27:06;96487.59;;;6.97;98.47
79331;BME280;68797;49.782;19.054;2023-11-21T05:29:33;96486.13;;;6.88;96.93
79331;BME280;68797;49.782;19.054;2023-11-21T05:32:00;96485.88;;;6.96;97.26
79331;BME280;68797;49.782;19.054;2023-11-21T05:34:32;96490.09;;;7.02;96.98
79331;BME280;68797;49.782;19.054;2023-11-21T05:37:00;96488.56;;;6.94;98.06
79331;BME280;68797;49.782;19.054;2023-11-21T05:39:27;96497.16;;;7.01;98.16
79331;BME280;68797;49.782;19.054;2023-11-21T05:41:56;96501.41;;;7.05;98.15
79331;BME280;68797;49.782;19.054;2023-11-21T05:44:31;96499.09;;;6.94;98.84
79331;BME280;68797;49.782;19.054;2023-11-21T05:46:59;96498.19;;;6.95;98.52
79331;BME280;68797;49.782;19.054;2023-11-21T05:49:25;96496.47;;;6.94;97.78
79331;BME280;68797;49.782;19.054;2023-11-21T05:51:54;96495.66;;;6.92;97.56
79331;BME280;68797;49.782;19.054;2023-11-21T05:54:25;96505.94;;;7.02;97.14
79331;BME280;68797;49.782;19.054;2023-11-21T05:56:52;96503.56;;;6.92;96.87
79331;BME280;68797;49.782;19.054;2023-11-21T05:59:20;96500.81;;;6.95;96.69
79331;BME280;68797;49.782;19.054;2023-11-21T06:01:47;96512.88;;;7.04;97.59
79331;BME280;68797;49.782;19.054;2023-11-21T06:04:50;96506.75;;;7.04;96.63
79331;BME280;68797;49.782;19.054;2023-11-21T06:07:19;96508.56;;;7.02;96.58
79331;BME280;68797;49.782;19.054;2023-11-21T06:09:48;96506.03;;;6.98;97.31
79331;BME280;68797;49.782;19.054;2023-11-21T06:12:18;96518.16;;;7.04;96.04
79331;BME280;68797;49.782;19.054;2023-11-21T06:14:47;96529.47;;;7.08;94.87
79331;BME280;68797;49.782;19.054;2023-11-21T06:17:15;96522.41;;;7.10;93.97
79331;BME280;68797;49.782;19.054;2023-11-21T06:19:42;96533.72;;;7.13;93.71
79331;BME280;68797;49.782;19.054;2023-11-21T06:22:09;96533.03;;;7.07;92.86
79331;BME280;68797;49.782;19.054;2023-11-21T06:24:40;96540.13;;;7.05;94.27
79331;BME280;68797;49.782;19.054;2023-11-21T06:27:16;96543.66;;;7.04;93.86
79331;BME280;68797;49.782;19.054;2023-11-21T06:29:43;96554.88;;;7.12;94.12
79331;BME280;68797;49.782;19.054;2023-11-21T06:32:10;96550.56;;;7.08;94.70
79331;BME280;68797;49.782;19.054;2023-11-21T06:34:37;96550.63;;;7.06;95.26
79331;BME280;68797;49.782;19.054;2023-11-21T06:37:04;96549.72;;;7.07;94.85
79331;BME280;68797;49.782;19.054;2023-11-21T06:39:31;96557.66;;;7.06;93.87
79331;BME280;68797;49.782;19.054;2023-11-21T06:41:59;96567.41;;;7.04;93.17
79331;BME280;68797;49.782;19.054;2023-11-21T06:44:26;96578.81;;;7.04;94.04
79331;BME280;68797;49.782;19.054;2023-11-21T06:46:55;96566.41;;;7.08;93.58
79331;BME280;68797;49.782;19.054;2023-11-21T06:49:22;96568.88;;;7.14;95.15
79331;BME280;68797;49.782;19.054;2023-11-21T06:51:50;96557.44;;;7.13;94.25
79331;BME280;68797;49.782;19.054;2023-11-21T06:54:17;96566.19;;;7.15;94.49
79331;BME280;68797;49.782;19.054;2023-11-21T06:56:50;96571.41;;;7.17;94.62
79331;BME280;68797;49.782;19.054;2023-11-21T06:59:19;96569.63;;;7.17;93.12
79331;BME280;68797;49.782;19.054;2023-11-21T07:01:48;96571.50;;;7.14;94.26
79331;BME280;68797;49.782;19.054;2023-11-21T07:04:18;96569.88;;;7.10;93.29
79331;BME280;68797;49.782;19.054;2023-11-21T07:06:45;96579.59;;;7.08;93.85
79331;BME280;68797;49.782;19.054;2023-11-21T07:09:14;96581.31;;;7.09;94.25
79331;BME280;68797;49.782;19.054;2023-11-21T07:11:42;96582.97;;;7.13;94.95
79331;BME280;68797;49.782;19.054;2023-11-21T07:14:09;96578.00;;;7.02;95.47
79331;BME280;68797;49.782;19.054;2023-11-21T07:16:36;96589.88;;;7.17;95.16
79331;BME280;68797;49.782;19.054;2023-11-21T07:19:05;96581.00;;;7.19;94.63
79331;BME280;68797;49.782;19.054;2023-11-21T07:21:35;96584.28;;;7.27;94.02
79331;BME280;68797;49.782;19.054;2023-11-21T07:24:02;96588.59;;;7.30;94.69
79331;BME280;68797;49.782;19.054;2023-11-21T07:26:30;96574.53;;;7.29;92.99
79331;BME280;68797;49.782;19.054;2023-11-21T07:28:56;96585.03;;;7.31;93.31
79331;BME280;68797;49.782;19.054;2023-11-21T07:31:34;96590.25;;;7.34;93.07
79331;BME280;68797;49.782;19.054;2023-11-21T07:34:00;96591.00;;;7.38;93.97
79331;BME280;68797;49.782;19.054;2023-11-21T07:36:27;96584.94;;;7.36;92.68
79331;BME280;68797;49.782;19.054;2023-11-21T07:38:53;96584.00;;;7.37;95.13
79331;BME280;68797;49.782;19.054;2023-11-21T07:41:20;96590.91;;;7.41;91.90
79331;BME280;68797;49.782;19.054;2023-11-21T07:43:47;96579.53;;;7.39;93.36
79331;BME280;68797;49.782;19.054;2023-11-21T07:46:13;96583.69;;;7.47;92.71
79331;BME280;68797;49.782;19.054;2023-11-21T07:48:41;96575.03;;;7.42;92.22
79331;BME280;68797;49.782;19.054;2023-11-21T07:51:08;96583.75;;;7.46;92.30
79331;BME280;68797;49.782;19.054;2023-11-21T07:53:36;96593.09;;;7.56;92.28
79331;BME280;68797;49.782;19.054;2023-11-21T07:56:06;96598.13;;;7.64;92.51
79331;BME280;68797;49.782;19.054;2023-11-21T07:58:34;96593.75;;;7.63;92.05
79331;BME280;68797;49.782;19.054;2023-11-21T08:01:02;96589.00;;;7.74;93.06
79331;BME280;68797;49.782;19.054;2023-11-21T08:03:29;96607.16;;;7.84;91.57
79331;BME280;68797;49.782;19.054;2023-11-21T08:05:58;96597.47;;;7.85;90.04
79331;BME280;68797;49.782;19.054;2023-11-21T08:08:24;96585.91;;;7.89;88.00
79331;BME280;68797;49.782;19.054;2023-11-21T08:10:51;96592.56;;;8.01;88.53
79331;BME280;68797;49.782;19.054;2023-11-21T08:13:28;96593.13;;;8.10;87.25
79331;BME280;68797;49.782;19.054;2023-11-21T08:15:55;96589.56;;;8.11;87.65
79331;BME280;68797;49.782;19.054;2023-11-21T08:18:29;96586.16;;;8.08;86.86
79331;BME280;68797;49.782;19.054;2023-11-21T08:20:56;96599.34;;;8.09;87.75
79331;BME280;68797;49.782;19.054;2023-11-21T08:23:22;96607.34;;;8.06;89.79
79331;BME280;68797;49.782;19.054;2023-11-21T08:25:53;96607.25;;;8.09;88.84
79331;BME280;68797;49.782;19.054;2023-11-21T08:28:19;96607.25;;;8.09;91.50
79331;BME280;68797;49.782;19.054;2023-11-21T08:30:52;96621.88;;;8.20;88.15
79331;BME280;68797;49.782;19.054;2023-11-21T08:33:20;96618.38;;;8.19;90.22
79331;BME280;68797;49.782;19.054;2023-11-21T08:35:46;96596.03;;;8.03;86.21
79331;BME280;68797;49.782;19.054;2023-11-21T08:38:13;96620.00;;;8.23;86.94
79331;BME280;68797;49.782;19.054;2023-11-21T08:40:39;96608.94;;;8.12;86.61
79331;BME280;68797;49.782;19.054;2023-11-21T08:43:06;96612.34;;;8.15;88.74
79331;BME280;68797;49.782;19.054;2023-11-21T08:45:33;96623.56;;;8.22;90.02
79331;BME280;68797;49.782;19.054;2023-11-21T08:48:11;96622.44;;;8.29;88.68
79331;BME280;68797;49.782;19.054;2023-11-21T08:50:38;96630.97;;;8.39;86.96
79331;BME280;68797;49.782;19.054;2023-11-21T08:53:04;96624.81;;;8.38;86.28
79331;BME280;68797;49.782;19.054;2023-11-21T08:55:31;96630.09;;;8.38;86.92
79331;BME280;68797;49.782;19.054;2023-11-21T08:58:03;96619.00;;;8.27;84.93
79331;BME280;68797;49.782;19.054;2023-11-21T09:00:32;96630.41;;;8.28;85.86
79331;BME280;68797;49.782;19.054;2023-11-21T09:02:58;96620.00;;;8.23;86.63
79331;BME280;68797;49.782;19.054;2023-11-21T09:05:27;96626.09;;;8.25;85.22
79331;BME280;68797;49.782;19.054;2023-11-21T09:07:53;96607.09;;;8.14;86.81
79331;BME280;68797;49.782;19.054;2023-11-21T09:10:19;96616.81;;;8.13;86.07
79331;BME280;68797;49.782;19.054;2023-11-21T09:12:46;96619.78;;;8.03;87.75
79331;BME280;68797;49.782;19.054;2023-11-21T09:15:13;96616.94;;;8.09;87.59
79331;BME280;68797;49.782;19.054;2023-11-21T09:17:40;96616.56;;;8.21;87.32
79331;BME280;68797;49.782;19.054;2023-11-21T09:20:07;96617.44;;;8.20;87.24
79331;BME280;68797;49.782;19.054;2023-11-21T09:22:36;96623.56;;;8.22;88.21
79331;BME280;68797;49.782;19.054;2023-11-21T09:25:02;96617.56;;;8.17;88.25
79331;BME280;68797;49.782;19.054;2023-11-21T09:27:31;96626.34;;;8.18;88.99
79331;BME280;68797;49.782;19.054;2023-11-21T09:29:58;96607.84;;;8.18;87.62
79331;BME280;68797;49.782;19.054;2023-11-21T09:32:24;96606.94;;;8.19;86.67
79331;BME280;68797;49.782;19.054;2023-11-21T09:34:50;96621.00;;;8.19;86.48
79331;BME280;68797;49.782;19.054;2023-11-21T09:37:16;96630.25;;;8.06;87.30
79331;BME280;68797;49.782;19.054;2023-11-21T09:39:43;96627.63;;;8.06;88.28
79331;BME280;68797;49.782;19.054;2023-11-21T09:44:48;96640.41;;;7.92;88.59
79331;BME280;68797;49.782;19.054;2023-11-21T09:47:17;96642.19;;;7.91;88.03
79331;BME280;68797;49.782;19.054;2023-11-21T09:49:49;96643.19;;;7.87;89.91
79331;BME280;68797;49.782;19.054;2023-11-21T09:52:22;96635.34;;;7.84;89.66
79331;BME280;68797;49.782;19.054;2023-11-21T09:54:52;96629.88;;;7.90;90.15
79331;BME280;68797;49.782;19.054;2023-11-21T09:57:20;96630.53;;;7.97;89.78
79331;BME280;68797;49.782;19.054;2023-11-21T09:59:54;96626.09;;;7.99;88.33
79331;BME280;68797;49.782;19.054;2023-11-21T10:02:24;96625.72;;;8.11;87.85
79331;BME280;68797;49.782;19.054;2023-11-21T10:04:53;96627.88;;;8.25;87.67
79331;BME280;68797;49.782;19.054;2023-11-21T10:07:21;96628.13;;;8.17;88.14
79331;BME280;68797;49.782;19.054;2023-11-21T10:09:47;96626.16;;;8.24;88.55
79331;BME280;68797;49.782;19.054;2023-11-21T10:12:16;96627.78;;;8.28;88.80
79331;BME280;68797;49.782;19.054;2023-11-21T10:14:45;96627.50;;;8.37;87.09
79331;BME280;68797;49.782;19.054;2023-11-21T10:17:14;96626.47;;;8.41;89.19
79331;BME280;68797;49.782;19.054;2023-11-21T10:19:42;96627.22;;;8.46;87.42
79331;BME280;68797;49.782;19.054;2023-11-21T10:22:09;96622.38;;;8.59;88.00
79331;BME280;68797;49.782;19.054;2023-11-21T10:24:35;96627.00;;;8.52;87.01
79331;BME280;68797;49.782;19.054;2023-11-21T10:27:04;96634.84;;;8.55;87.41
79331;BME280;68797;49.782;19.054;2023-11-21T10:29:30;96624.09;;;8.60;86.79
79331;BME280;68797;49.782;19.054;2023-11-21T10:31:56;96631.84;;;8.64;85.68
79331;BME280;68797;49.782;19.054;2023-11-21T10:34:25;96619.84;;;8.56;86.66
79331;BME280;68797;49.782;19.054;2023-11-21T10:36:53;96626.78;;;8.58;87.79
79331;BME280;68797;49.782;19.054;2023-11-21T10:39:20;96630.41;;;8.56;87.34
79331;BME280;68797;49.782;19.054;2023-11-21T10:41:49;96625.22;;;8.53;86.86
79331;BME280;68797;49.782;19.054;2023-11-21T10:44:18;96625.50;;;8.45;86.91
79331;BME280;68797;49.782;19.054;2023-11-21T10:46:53;96626.47;;;8.42;86.11
79331;BME280;68797;49.782;19.054;2023-11-21T10:49:24;96622.06;;;8.41;86.84
79331;BME280;68797;49.782;19.054;2023-11-21T10:51:52;96631.97;;;8.61;86.85
79331;BME280;68797;49.782;19.054;2023-11-21T10:54:20;96628.97;;;8.72;84.01
79331;BME280;68797;49.782;19.054;2023-11-21T10:56:49;96626.97;;;8.79;86.82
79331;BME280;68797;49.782;19.054;2023-11-21T10:59:17;96611.47;;;8.93;84.37
79331;BME280;68797;49.782;19.054;2023-11-21T11:01:45;96612.09;;;8.74;85.26
79331;BME280;68797;49.782;19.054;2023-11-21T11:04:12;96619.34;;;8.69;84.96
79331;BME280;68797;49.782;19.054;2023-11-21T11:06:54;96622.47;;;8.56;84.95
79331;BME280;68797;49.782;19.054;2023-11-21T11:09:22;96616.75;;;8.43;85.56
79331;BME280;68797;49.782;19.054;2023-11-21T11:11:49;96617.44;;;8.22;86.53
79331;BME280;68797;49.782;19.054;2023-11-21T11:14:18;96628.34;;;8.11;87.40
79331;BME280;68797;49.782;19.054;2023-11-21T11:16:45;96623.13;;;8.09;88.74
79331;BME280;68797;49.782;19.054;2023-11-21T11:19:12;96617.78;;;8.11;89.78
79331;BME280;68797;49.782;19.054;2023-11-21T11:22:00;96626.56;;;8.11;88.11
79331;BME280;68797;49.782;19.054;2023-11-21T11:25:05;96622.09;;;8.13;89.00
79331;BME280;68797;49.782;19.054;2023-11-21T11:27:54;96620.38;;;8.12;90.07
79331;BME280;68797;49.782;19.054;2023-11-21T11:36:00;96633.88;;;8.03;90.36
79331;BME280;68797;49.782;19.054;2023-11-21T11:38:32;96628.47;;;8.06;91.49
79331;BME280;68797;49.782;19.054;2023-11-21T11:41:06;96629.63;;;7.98;89.62
79331;BME280;68797;49.782;19.054;2023-11-21T11:43:33;96634.03;;;7.97;89.46
79331;BME280;68797;49.782;19.054;2023-11-21T11:46:03;96636.75;;;7.96;89.66
79331;BME280;68797;49.782;19.054;2023-11-21T11:48:29;96639.66;;;7.88;89.56
79331;BME280;68797;49.782;19.054;2023-11-21T11:51:12;96635.41;;;7.82;88.83
79331;BME280;68797;49.782;19.054;2023-11-21T11:53:44;96633.84;;;7.75;89.94
79331;BME280;68797;49.782;19.054;2023-11-21T11:56:31;96637.34;;;7.77;88.81
79331;BME280;68797;49.782;19.054;2023-11-21T11:59:02;96637.00;;;7.88;89.37
79331;BME280;68797;49.782;19.054;2023-11-21T12:01:32;96644.88;;;7.90;89.24
79331;BME280;68797;49.782;19.054;2023-11-21T12:06:52;96634.88;;;7.99;88.71
79331;BME280;68797;49.782;19.054;2023-11-21T12:09:20;96638.41;;;8.00;87.97
79331;BME280;68797;49.782;19.054;2023-11-21T12:11:52;96632.53;;;7.90;88.19
79331;BME280;68797;49.782;19.054;2023-11-21T12:14:18;96631.50;;;7.94;88.29
79331;BME280;68797;49.782;19.054;2023-11-21T12:16:45;96636.91;;;7.91;90.05
79331;BME280;68797;49.782;19.054;2023-11-21T12:19:11;96632.47;;;7.92;89.15
79331;BME280;68797;49.782;19.054;2023-11-21T12:21:39;96638.44;;;7.98;89.20
79331;BME280;68797;49.782;19.054;2023-11-21T12:24:08;96640.94;;;8.03;90.39
79331;BME280;68797;49.782;19.054;2023-11-21T12:26:40;96648.81;;;8.04;90.69
79331;BME280;68797;49.782;19.054;2023-11-21T12:29:06;96634.69;;;8.05;90.29
79331;BME280;68797;49.782;19.054;2023-11-21T12:31:35;96636.00;;;8.19;89.69
79331;BME280;68797;49.782;19.054;2023-11-21T12:34:02;96643.94;;;8.19;90.37
79331;BME280;68797;49.782;19.054;2023-11-21T12:36:28;96635.31;;;8.13;87.62
79331;BME280;68797;49.782;19.054;2023-11-21T12:38:56;96640.72;;;8.09;89.88
79331;BME280;68797;49.782;19.054;2023-11-21T12:41:23;96638.06;;;8.09;90.38
79331;BME280;68797;49.782;19.054;2023-11-21T12:43:49;96637.94;;;8.13;87.75
79331;BME280;68797;49.782;19.054;2023-11-21T12:46:15;96629.72;;;8.23;87.61
79331;BME280;68797;49.782;19.054;2023-11-21T12:48:43;96630.06;;;8.12;87.86
79331;BME280;68797;49.782;19.054;2023-11-21T12:51:11;96628.25;;;8.14;86.96
79331;BME280;68797;49.782;19.054;2023-11-21T12:53:38;96627.50;;;8.09;86.77
79331;BME280;68797;49.782;19.054;2023-11-21T12:56:11;96633.41;;;8.17;86.94
79331;BME280;68797;49.782;19.054;2023-11-21T12:58:38;96642.16;;;8.19;87.94
79331;BME280;68797;49.782;19.054;2023-11-21T13:01:06;96640.97;;;8.01;86.57
79331;BME280;68797;49.782;19.054;2023-11-21T13:03:38;96638.28;;;8.03;87.50
79331;BME280;68797;49.782;19.054;2023-11-21T13:06:06;96643.34;;;8.10;88.66
79331;BME280;68797;49.782;19.054;2023-11-21T13:08:33;96641.63;;;8.08;86.78
79331;BME280;68797;49.782;19.054;2023-11-21T13:11:00;96646.91;;;8.08;88.04
79331;BME280;68797;49.782;19.054;2023-11-21T13:13:29;96650.06;;;8.21;88.74
79331;BME280;68797;49.782;19.054;2023-11-21T13:15:59;96655.38;;;8.19;86.93